createdAt,value
2017-11-29T00:00:12.639Z,21.14
2017-11-29T00:00:44.372Z,21.13
2017-11-29T00:01:16.012Z,21.13
2017-11-29T00:01:47.655Z,21.13
2017-11-29T00:02:19.297Z,21.13
2017-11-29T00:02:50.939Z,21.13
2017-11-29T00:03:22.580Z,21.12
2017-11-29T00:03:54.222Z,21.09
2017-11-29T00:04:25.899Z,21.07
2017-11-29T00:04:57.528Z,21.06
2017-11-29T00:05:29.152Z,21.07
2017-11-29T00:06:02.020Z,21.05
2017-11-29T00:06:33.661Z,21.07
2017-11-29T00:07:05.305Z,21.08
2017-11-29T00:07:36.948Z,21.09
2017-11-29T00:08:08.591Z,21.09
2017-11-29T00:08:40.537Z,21.08
2017-11-29T00:09:12.186Z,21.08
2017-11-29T00:09:43.851Z,21.08
2017-11-29T00:10:15.476Z,21.07
2017-11-29T00:10:47.308Z,21.10
2017-11-29T00:11:19.052Z,21.08
2017-11-29T00:11:50.695Z,21.09
2017-11-29T00:12:22.643Z,21.08
2017-11-29T00:12:54.284Z,21.06
2017-11-29T00:13:25.924Z,21.07
2017-11-29T00:13:57.569Z,21.06
2017-11-29T00:14:29.210Z,21.09
2017-11-29T00:15:00.875Z,21.08
2017-11-29T00:15:32.500Z,21.08
2017-11-29T00:16:04.171Z,21.08
2017-11-29T00:16:35.794Z,21.06
2017-11-29T00:17:07.423Z,21.06
2017-11-29T00:17:39.063Z,21.07
2017-11-29T00:18:10.705Z,21.07
2017-11-29T00:18:42.336Z,21.06
2017-11-29T00:19:13.988Z,21.07
2017-11-29T00:19:45.631Z,21.05
2017-11-29T00:20:17.275Z,21.04
2017-11-29T00:20:49.159Z,21.04
2017-11-29T00:21:20.819Z,21.04
2017-11-29T00:21:52.446Z,21.05
2017-11-29T00:22:24.071Z,21.04
2017-11-29T00:22:55.697Z,21.03
2017-11-29T00:23:27.319Z,21.03
2017-11-29T00:23:59.073Z,21.04
2017-11-29T00:24:30.720Z,21.01
2017-11-29T00:25:02.663Z,21.00
2017-11-29T00:25:34.613Z,21.02
2017-11-29T00:26:06.275Z,21.02
2017-11-29T00:26:37.944Z,21.03
2017-11-29T00:27:09.573Z,21.03
2017-11-29T00:27:41.203Z,21.04
2017-11-29T00:28:12.829Z,21.02
2017-11-29T00:28:44.703Z,21.01
2017-11-29T00:29:16.351Z,21.02
2017-11-29T00:29:48.056Z,21.02
2017-11-29T00:30:19.799Z,21.01
2017-11-29T00:30:51.646Z,21.01
2017-11-29T00:31:23.294Z,21.03
2017-11-29T00:31:54.929Z,21.02
2017-11-29T00:32:26.591Z,21.03
2017-11-29T00:32:58.219Z,21.02
2017-11-29T00:33:29.884Z,21.01
2017-11-29T00:34:01.519Z,21.01
2017-11-29T00:34:33.142Z,21.03
2017-11-29T00:35:04.780Z,21.01
2017-11-29T00:35:36.702Z,21.01
2017-11-29T00:36:08.327Z,21.04
2017-11-29T00:36:39.953Z,21.03
2017-11-29T00:37:11.584Z,21.02
2017-11-29T00:37:43.219Z,21.01
2017-11-29T00:38:14.844Z,21.02
2017-11-29T00:38:46.582Z,21.04
2017-11-29T00:39:18.223Z,21.02
2017-11-29T00:39:49.865Z,21.01
2017-11-29T00:40:21.532Z,21.00
2017-11-29T00:40:53.196Z,21.00
2017-11-29T00:41:24.820Z,21.01
2017-11-29T00:41:56.442Z,21.00
2017-11-29T00:42:28.386Z,21.01
2017-11-29T00:43:00.024Z,21.02
2017-11-29T00:43:31.666Z,21.02
2017-11-29T00:44:03.307Z,20.99
2017-11-29T00:44:34.958Z,21.00
2017-11-29T00:45:06.900Z,21.01
2017-11-29T00:45:39.153Z,21.02
2017-11-29T00:46:10.798Z,21.03
2017-11-29T00:46:42.467Z,21.02
2017-11-29T00:47:14.091Z,21.02
2017-11-29T00:47:45.897Z,21.02
2017-11-29T00:48:17.528Z,21.01
2017-11-29T00:48:49.159Z,21.03
2017-11-29T00:49:20.791Z,21.03
2017-11-29T00:49:52.421Z,21.02
2017-11-29T00:50:24.048Z,21.02
2017-11-29T00:50:55.682Z,21.02
2017-11-29T00:51:27.530Z,21.03
2017-11-29T00:51:59.199Z,21.03
2017-11-29T00:52:30.855Z,21.01
2017-11-29T00:53:02.708Z,21.03
2017-11-29T00:53:34.342Z,21.01
2017-11-29T00:54:05.988Z,21.01
2017-11-29T00:54:37.625Z,21.00
2017-11-29T00:55:09.327Z,21.00
2017-11-29T00:55:40.965Z,20.98
2017-11-29T00:56:12.608Z,20.99
2017-11-29T00:56:44.250Z,21.01
2017-11-29T00:57:15.940Z,21.01
2017-11-29T00:57:47.566Z,21.01
2017-11-29T00:58:19.203Z,21.02
2017-11-29T00:58:50.836Z,21.02
2017-11-29T00:59:22.464Z,21.04
2017-11-29T00:59:54.102Z,21.03
2017-11-29T01:00:26.054Z,21.05
2017-11-29T01:00:57.704Z,21.04
2017-11-29T01:01:29.340Z,21.03
2017-11-29T01:02:01.205Z,21.05
2017-11-29T01:02:32.925Z,21.04
2017-11-29T01:03:04.620Z,21.05
2017-11-29T01:03:36.250Z,21.05
2017-11-29T01:04:07.878Z,21.04
2017-11-29T01:04:39.503Z,21.04
2017-11-29T01:05:11.146Z,21.02
2017-11-29T01:05:42.779Z,21.04
2017-11-29T01:06:14.418Z,21.01
2017-11-29T01:06:46.291Z,21.00
2017-11-29T01:07:17.944Z,21.00
2017-11-29T01:07:49.574Z,21.01
2017-11-29T01:08:21.243Z,20.99
2017-11-29T01:08:52.876Z,21.02
2017-11-29T01:09:24.500Z,20.99
2017-11-29T01:09:56.128Z,20.99
2017-11-29T01:10:27.763Z,20.98
2017-11-29T01:10:59.502Z,20.99
2017-11-29T01:11:31.145Z,20.98
2017-11-29T01:12:02.816Z,20.98
2017-11-29T01:12:34.439Z,20.98
2017-11-29T01:13:06.112Z,20.98
2017-11-29T01:13:37.739Z,20.95
2017-11-29T01:14:09.386Z,20.97
2017-11-29T01:14:41.011Z,20.96
2017-11-29T01:15:12.643Z,20.96
2017-11-29T01:15:44.516Z,20.96
2017-11-29T01:16:16.143Z,20.95
2017-11-29T01:16:47.871Z,20.96
2017-11-29T01:17:19.512Z,20.95
2017-11-29T01:17:51.157Z,20.94
2017-11-29T01:18:22.824Z,20.92
2017-11-29T01:18:54.459Z,20.95
2017-11-29T01:19:26.094Z,20.97
2017-11-29T01:19:58.029Z,20.95
2017-11-29T01:20:29.671Z,20.96
2017-11-29T01:21:01.313Z,20.97
2017-11-29T01:21:32.955Z,20.97
2017-11-29T01:22:04.597Z,20.95
2017-11-29T01:22:36.239Z,20.96
2017-11-29T01:23:08.190Z,20.98
2017-11-29T01:23:40.137Z,20.98
2017-11-29T01:24:12.087Z,20.98
2017-11-29T01:24:43.752Z,20.97
2017-11-29T01:25:15.391Z,20.97
2017-11-29T01:25:47.015Z,20.96
2017-11-29T01:26:18.962Z,20.97
2017-11-29T01:26:50.600Z,20.95
2017-11-29T01:27:22.244Z,20.96
2017-11-29T01:27:53.915Z,20.95
2017-11-29T01:28:25.540Z,20.95
2017-11-29T01:28:57.212Z,20.94
2017-11-29T01:29:28.840Z,20.96
2017-11-29T01:30:00.468Z,20.95
2017-11-29T01:30:32.405Z,20.95
2017-11-29T01:31:04.048Z,20.94
2017-11-29T01:31:35.691Z,20.94
2017-11-29T01:32:07.331Z,20.95
2017-11-29T01:32:38.977Z,20.94
2017-11-29T01:33:10.651Z,20.93
2017-11-29T01:33:42.275Z,20.92
2017-11-29T01:34:13.911Z,20.94
2017-11-29T01:34:45.549Z,20.94
2017-11-29T01:35:17.183Z,20.94
2017-11-29T01:35:48.824Z,20.93
2017-11-29T01:36:20.461Z,20.95
2017-11-29T01:36:52.103Z,20.94
2017-11-29T01:37:23.747Z,20.94
2017-11-29T01:37:55.389Z,20.95
2017-11-29T01:38:27.113Z,20.95
2017-11-29T01:38:58.742Z,20.94
2017-11-29T01:39:30.371Z,20.93
2017-11-29T01:40:02.001Z,20.93
2017-11-29T01:40:33.643Z,20.96
2017-11-29T01:41:05.284Z,20.98
2017-11-29T01:41:36.908Z,20.98
2017-11-29T01:42:08.795Z,20.98
2017-11-29T01:42:40.428Z,20.98
2017-11-29T01:43:12.055Z,21.00
2017-11-29T01:43:43.687Z,21.00
2017-11-29T01:44:15.312Z,21.00
2017-11-29T01:44:47.042Z,21.00
2017-11-29T01:45:18.781Z,21.02
2017-11-29T01:45:50.632Z,20.99
2017-11-29T01:46:22.260Z,21.00
2017-11-29T01:46:53.913Z,20.99
2017-11-29T01:47:25.587Z,21.00
2017-11-29T01:47:57.212Z,21.00
2017-11-29T01:48:29.151Z,21.00
2017-11-29T01:49:00.791Z,21.00
2017-11-29T01:49:32.616Z,21.00
2017-11-29T01:50:04.382Z,21.01
2017-11-29T01:50:36.025Z,20.99
2017-11-29T01:51:07.670Z,20.98
2017-11-29T01:51:39.316Z,20.99
2017-11-29T01:52:10.949Z,21.05
2017-11-29T01:52:42.616Z,21.13
2017-11-29T01:53:14.247Z,21.16
2017-11-29T01:53:46.080Z,21.14
2017-11-29T01:54:17.825Z,21.10
2017-11-29T01:54:49.775Z,21.06
2017-11-29T01:55:21.419Z,21.03
2017-11-29T01:55:54.590Z,21.00
2017-11-29T01:56:26.234Z,20.98
2017-11-29T01:56:58.068Z,20.97
2017-11-29T01:57:29.827Z,21.00
2017-11-29T01:58:01.468Z,20.97
2017-11-29T01:58:33.109Z,20.96
2017-11-29T01:59:04.776Z,20.95
2017-11-29T01:59:36.399Z,20.97
2017-11-29T02:00:08.344Z,20.98
2017-11-29T02:00:39.986Z,20.98
2017-11-29T02:01:11.634Z,20.98
2017-11-29T02:01:43.576Z,20.98
2017-11-29T02:02:15.220Z,20.99
2017-11-29T02:02:47.174Z,20.97
2017-11-29T02:03:18.839Z,20.96
2017-11-29T02:03:50.470Z,20.96
2017-11-29T02:04:22.095Z,20.98
2017-11-29T02:04:53.735Z,20.97
2017-11-29T02:05:25.377Z,20.98
2017-11-29T02:05:57.863Z,20.98
2017-11-29T02:06:29.527Z,20.96
2017-11-29T02:07:01.168Z,20.98
2017-11-29T02:07:32.804Z,20.98
2017-11-29T02:08:04.427Z,20.96
2017-11-29T02:08:36.051Z,20.96
2017-11-29T02:09:07.792Z,20.98
2017-11-29T02:09:39.433Z,20.96
2017-11-29T02:10:11.060Z,20.96
2017-11-29T02:10:43.024Z,20.96
2017-11-29T02:11:14.665Z,20.94
2017-11-29T02:11:46.334Z,20.95
2017-11-29T02:12:18.001Z,20.97
2017-11-29T02:12:49.628Z,20.97
2017-11-29T02:13:21.252Z,21.00
2017-11-29T02:13:53.119Z,20.97
2017-11-29T02:14:24.748Z,20.98
2017-11-29T02:14:56.371Z,20.96
2017-11-29T02:15:28.109Z,20.95
2017-11-29T02:15:59.750Z,20.95
2017-11-29T02:16:31.375Z,20.95
2017-11-29T02:17:03.044Z,20.95
2017-11-29T02:17:34.908Z,20.95
2017-11-29T02:18:06.532Z,20.93
2017-11-29T02:18:38.268Z,20.93
2017-11-29T02:19:10.217Z,20.93
2017-11-29T02:19:41.883Z,20.94
2017-11-29T02:20:13.520Z,20.92
2017-11-29T02:20:45.453Z,20.95
2017-11-29T02:21:17.399Z,20.93
2017-11-29T02:21:49.040Z,20.91
2017-11-29T02:22:20.714Z,20.93
2017-11-29T02:22:52.339Z,20.94
2017-11-29T02:23:23.972Z,20.95
2017-11-29T02:23:55.601Z,20.95
2017-11-29T02:24:27.249Z,20.94
2017-11-29T02:24:58.892Z,20.95
2017-11-29T02:25:30.533Z,20.95
2017-11-29T02:26:02.176Z,20.94
2017-11-29T02:26:33.818Z,20.96
2017-11-29T02:27:05.443Z,20.97
2017-11-29T02:27:37.111Z,20.95
2017-11-29T02:28:08.977Z,20.97
2017-11-29T02:28:40.600Z,20.96
2017-11-29T02:29:12.335Z,20.97
2017-11-29T02:29:43.976Z,20.96
2017-11-29T02:30:15.654Z,20.95
2017-11-29T02:30:47.284Z,20.99
2017-11-29T02:31:18.957Z,21.01
2017-11-29T02:31:50.584Z,20.98
2017-11-29T02:32:22.219Z,20.98
2017-11-29T02:32:53.884Z,20.98
2017-11-29T02:33:25.511Z,20.99
2017-11-29T02:33:57.144Z,21.00
2017-11-29T02:34:28.783Z,20.98
2017-11-29T02:35:00.413Z,20.97
2017-11-29T02:35:32.043Z,20.98
2017-11-29T02:36:03.679Z,20.96
2017-11-29T02:36:35.340Z,20.96
2017-11-29T02:37:07.201Z,21.00
2017-11-29T02:37:38.834Z,21.01
2017-11-29T02:38:10.480Z,21.03
2017-11-29T02:38:42.120Z,21.04
2017-11-29T02:39:13.787Z,21.05
2017-11-29T02:39:45.421Z,21.03
2017-11-29T02:40:17.051Z,21.01
2017-11-29T02:40:48.680Z,21.02
2017-11-29T02:41:20.310Z,21.02
2017-11-29T02:41:52.049Z,21.01
2017-11-29T02:42:23.690Z,20.99
2017-11-29T02:42:55.331Z,21.02
2017-11-29T02:43:26.972Z,21.00
2017-11-29T02:43:58.639Z,20.99
2017-11-29T02:44:30.264Z,21.00
2017-11-29T02:45:01.905Z,21.00
2017-11-29T02:45:33.532Z,20.98
2017-11-29T02:46:05.182Z,21.01
2017-11-29T02:46:37.047Z,20.99
2017-11-29T02:47:08.711Z,21.00
2017-11-29T02:47:40.341Z,21.02
2017-11-29T02:48:11.974Z,21.03
2017-11-29T02:48:43.604Z,21.04
2017-11-29T02:49:15.235Z,21.04
2017-11-29T02:49:46.908Z,21.00
2017-11-29T02:50:18.531Z,20.98
2017-11-29T02:50:50.267Z,21.00
2017-11-29T02:51:21.911Z,20.99
2017-11-29T02:51:53.551Z,21.00
2017-11-29T02:52:25.192Z,20.98
2017-11-29T02:52:56.880Z,21.00
2017-11-29T02:53:28.522Z,21.00
2017-11-29T02:54:00.148Z,21.02
2017-11-29T02:54:31.783Z,21.02
2017-11-29T02:55:03.409Z,21.03
2017-11-29T02:55:35.271Z,21.04
2017-11-29T02:56:06.907Z,21.02
2017-11-29T02:56:38.543Z,21.02
2017-11-29T02:57:10.276Z,21.02
2017-11-29T02:57:41.910Z,21.02
2017-11-29T02:58:13.584Z,21.01
2017-11-29T02:58:45.211Z,21.03
2017-11-29T02:59:16.845Z,21.02
2017-11-29T02:59:48.487Z,21.00
2017-11-29T03:00:20.127Z,21.03
2017-11-29T03:00:51.769Z,21.00
2017-11-29T03:01:23.414Z,21.00
2017-11-29T03:01:55.253Z,21.00
2017-11-29T03:02:27.003Z,20.99
2017-11-29T03:02:58.685Z,21.00
2017-11-29T03:03:31.055Z,20.98
2017-11-29T03:04:03.095Z,20.98
2017-11-29T03:04:34.720Z,21.00
2017-11-29T03:05:06.343Z,21.02
2017-11-29T03:05:38.083Z,21.00
2017-11-29T03:06:09.812Z,21.01
2017-11-29T03:06:41.675Z,21.01
2017-11-29T03:07:13.317Z,21.00
2017-11-29T03:07:44.959Z,21.00
2017-11-29T03:08:16.627Z,20.98
2017-11-29T03:08:48.264Z,20.97
2017-11-29T03:09:19.899Z,21.00
2017-11-29T03:09:51.534Z,20.96
2017-11-29T03:10:23.200Z,20.98
2017-11-29T03:10:54.866Z,20.96
2017-11-29T03:11:26.499Z,20.98
2017-11-29T03:11:58.127Z,20.99
2017-11-29T03:12:29.756Z,20.98
2017-11-29T03:13:01.379Z,20.99
2017-11-29T03:13:33.054Z,21.00
2017-11-29T03:14:04.683Z,20.98
2017-11-29T03:14:36.309Z,20.98
2017-11-29T03:15:08.139Z,20.99
2017-11-29T03:15:39.902Z,20.98
2017-11-29T03:16:11.947Z,20.98
2017-11-29T03:16:43.740Z,20.98
2017-11-29T03:17:15.387Z,20.98
2017-11-29T03:17:47.023Z,20.98
2017-11-29T03:18:18.660Z,20.98
2017-11-29T03:18:50.360Z,20.99
2017-11-29T03:19:22.201Z,20.97
2017-11-29T03:19:53.951Z,20.96
2017-11-29T03:20:25.592Z,20.95
2017-11-29T03:20:57.235Z,20.95
2017-11-29T03:21:28.875Z,20.94
2017-11-29T03:22:00.518Z,20.95
2017-11-29T03:22:32.168Z,20.97
2017-11-29T03:23:03.801Z,20.96
2017-11-29T03:23:42.499Z,20.96
2017-11-29T03:24:14.771Z,20.95
2017-11-29T03:24:46.716Z,20.96
2017-11-29T03:25:18.355Z,20.95
2017-11-29T03:25:50.005Z,20.94
2017-11-29T03:26:21.755Z,20.94
2017-11-29T03:26:53.392Z,20.92
2017-11-29T03:27:25.072Z,20.94
2017-11-29T03:27:56.700Z,20.94
2017-11-29T03:28:28.330Z,20.94
2017-11-29T03:28:59.957Z,20.94
2017-11-29T03:29:31.799Z,20.96
2017-11-29T03:30:03.444Z,20.98
2017-11-29T03:30:35.326Z,20.97
2017-11-29T03:31:06.960Z,20.98
2017-11-29T03:31:38.590Z,20.96
2017-11-29T03:32:10.224Z,20.96
2017-11-29T03:32:41.900Z,20.95
2017-11-29T03:33:13.524Z,20.96
2017-11-29T03:33:45.156Z,20.95
2017-11-29T03:34:17.803Z,20.96
2017-11-29T03:34:49.443Z,20.95
2017-11-29T03:35:21.092Z,20.96
2017-11-29T03:35:53.038Z,20.95
2017-11-29T03:36:24.985Z,20.94
2017-11-29T03:36:56.626Z,20.93
2017-11-29T03:37:28.271Z,20.94
2017-11-29T03:37:59.948Z,20.95
2017-11-29T03:38:31.570Z,20.94
2017-11-29T03:39:03.198Z,20.95
2017-11-29T03:39:34.836Z,20.95
2017-11-29T03:40:06.477Z,20.98
2017-11-29T03:40:38.120Z,20.98
2017-11-29T03:41:09.763Z,20.98
2017-11-29T03:41:41.404Z,20.96
2017-11-29T03:42:13.048Z,20.97
2017-11-29T03:42:44.687Z,20.98
2017-11-29T03:43:16.343Z,20.97
2017-11-29T03:43:47.978Z,20.98
2017-11-29T03:44:19.614Z,20.99
2017-11-29T03:44:51.254Z,21.00
2017-11-29T03:45:22.896Z,20.98
2017-11-29T03:45:54.538Z,20.99
2017-11-29T03:46:26.181Z,21.01
2017-11-29T03:46:57.825Z,21.02
2017-11-29T03:47:29.464Z,21.00
2017-11-29T03:48:01.095Z,21.00
2017-11-29T03:48:32.793Z,21.00
2017-11-29T03:49:04.423Z,21.00
2017-11-29T03:49:36.051Z,20.99
2017-11-29T03:50:07.909Z,21.01
2017-11-29T03:50:39.535Z,20.99
2017-11-29T03:51:11.271Z,20.99
2017-11-29T03:51:42.909Z,21.03
2017-11-29T03:52:14.549Z,21.05
2017-11-29T03:52:46.190Z,21.07
2017-11-29T03:53:17.834Z,21.08
2017-11-29T03:53:49.516Z,21.08
2017-11-29T03:54:21.144Z,21.09
2017-11-29T03:54:52.768Z,21.11
2017-11-29T03:55:24.407Z,21.11
2017-11-29T03:55:56.044Z,21.16
2017-11-29T03:56:27.679Z,21.14
2017-11-29T03:56:59.325Z,21.14
2017-11-29T03:57:30.967Z,21.14
2017-11-29T03:58:02.611Z,21.14
2017-11-29T03:58:34.250Z,21.14
2017-11-29T03:59:06.004Z,21.14
2017-11-29T03:59:38.080Z,21.16
2017-11-29T04:00:09.704Z,21.17
2017-11-29T04:00:41.435Z,21.16
2017-11-29T04:01:13.075Z,21.16
2017-11-29T04:01:44.719Z,21.14
2017-11-29T04:02:16.361Z,21.15
2017-11-29T04:02:48.001Z,21.16
2017-11-29T04:03:19.642Z,21.15
2017-11-29T04:03:51.284Z,21.16
2017-11-29T04:04:22.926Z,21.16
2017-11-29T04:04:54.572Z,21.18
2017-11-29T04:05:26.260Z,21.19
2017-11-29T04:05:57.883Z,21.20
2017-11-29T04:06:29.512Z,21.19
2017-11-29T04:07:01.148Z,21.17
2017-11-29T04:07:33.089Z,21.17
2017-11-29T04:08:04.729Z,21.17
2017-11-29T04:08:36.371Z,21.18
2017-11-29T04:09:08.321Z,21.19
2017-11-29T04:09:39.958Z,21.17
2017-11-29T04:10:11.601Z,21.18
2017-11-29T04:10:43.276Z,21.18
2017-11-29T04:11:14.904Z,21.18
2017-11-29T04:11:46.543Z,21.18
2017-11-29T04:12:18.374Z,21.21
2017-11-29T04:12:50.121Z,21.19
2017-11-29T04:13:21.760Z,21.18
2017-11-29T04:13:53.411Z,21.18
2017-11-29T04:14:25.297Z,21.17
2017-11-29T04:14:56.923Z,21.16
2017-11-29T04:15:28.548Z,21.16
2017-11-29T04:16:00.219Z,21.16
2017-11-29T04:16:31.867Z,21.18
2017-11-29T04:17:03.505Z,21.16
2017-11-29T04:17:35.156Z,21.14
2017-11-29T04:18:06.786Z,21.11
2017-11-29T04:18:38.411Z,21.13
2017-11-29T04:19:10.036Z,21.14
2017-11-29T04:19:41.774Z,21.14
2017-11-29T04:20:13.412Z,21.16
2017-11-29T04:20:45.054Z,21.16
2017-11-29T04:21:16.724Z,21.17
2017-11-29T04:21:48.360Z,21.17
2017-11-29T04:22:19.988Z,21.15
2017-11-29T04:22:51.647Z,21.12
2017-11-29T04:23:23.273Z,21.12
2017-11-29T04:23:54.908Z,21.10
2017-11-29T04:24:26.547Z,21.10
2017-11-29T04:24:58.187Z,21.11
2017-11-29T04:25:29.860Z,21.08
2017-11-29T04:26:01.496Z,21.08
2017-11-29T04:26:33.123Z,21.08
2017-11-29T04:27:04.756Z,21.09
2017-11-29T04:27:36.398Z,21.06
2017-11-29T04:28:08.074Z,21.04
2017-11-29T04:28:39.709Z,21.02
2017-11-29T04:29:11.336Z,21.04
2017-11-29T04:29:43.276Z,21.04
2017-11-29T04:30:15.118Z,21.02
2017-11-29T04:30:46.867Z,21.03
2017-11-29T04:31:18.507Z,21.02
2017-11-29T04:31:50.148Z,21.01
2017-11-29T04:32:21.791Z,20.99
2017-11-29T04:32:53.431Z,21.01
2017-11-29T04:33:25.115Z,21.00
2017-11-29T04:33:56.743Z,21.00
2017-11-29T04:34:28.367Z,20.98
2017-11-29T04:35:00.011Z,20.96
2017-11-29T04:35:31.951Z,20.95
2017-11-29T04:36:03.593Z,20.95
2017-11-29T04:36:35.232Z,20.96
2017-11-29T04:37:06.876Z,20.95
2017-11-29T04:37:38.524Z,20.91
2017-11-29T04:38:10.161Z,20.92
2017-11-29T04:38:41.847Z,20.90
2017-11-29T04:39:14.367Z,20.89
2017-11-29T04:39:46.189Z,20.89
2017-11-29T04:40:17.959Z,20.88
2017-11-29T04:40:49.788Z,20.88
2017-11-29T04:41:21.549Z,20.90
2017-11-29T04:41:53.194Z,20.91
2017-11-29T04:42:25.057Z,20.91
2017-11-29T04:42:56.684Z,20.95
2017-11-29T04:43:28.327Z,20.95
2017-11-29T04:44:00.017Z,20.93
2017-11-29T04:44:31.644Z,20.95
2017-11-29T04:45:03.273Z,20.93
2017-11-29T04:45:34.900Z,20.93
2017-11-29T04:46:06.587Z,20.93
2017-11-29T04:46:38.212Z,20.92
2017-11-29T04:47:09.836Z,20.95
2017-11-29T04:47:41.464Z,20.92
2017-11-29T04:48:13.202Z,20.96
2017-11-29T04:48:44.842Z,20.95
2017-11-29T04:49:16.490Z,20.95
2017-11-29T04:49:48.123Z,20.95
2017-11-29T04:50:19.768Z,20.96
2017-11-29T04:50:51.415Z,20.98
2017-11-29T04:51:23.080Z,21.01
2017-11-29T04:51:54.719Z,21.00
2017-11-29T04:52:26.343Z,21.00
2017-11-29T04:52:58.000Z,21.02
2017-11-29T04:53:29.631Z,21.00
2017-11-29T04:54:01.263Z,21.02
2017-11-29T04:54:33.617Z,21.04
2017-11-29T04:55:05.445Z,21.01
2017-11-29T04:55:37.079Z,21.03
2017-11-29T04:56:08.751Z,21.02
2017-11-29T04:56:40.419Z,21.04
2017-11-29T04:57:12.043Z,21.02
2017-11-29T04:57:43.676Z,21.02
2017-11-29T04:58:15.315Z,21.02
2017-11-29T04:58:47.183Z,21.05
2017-11-29T04:59:18.812Z,21.07
2017-11-29T04:59:50.552Z,21.08
2017-11-29T05:00:22.247Z,21.07
2017-11-29T05:00:53.878Z,21.08
2017-11-29T05:01:25.503Z,21.09
2017-11-29T05:01:57.167Z,21.09
2017-11-29T05:02:28.800Z,21.09
2017-11-29T05:03:00.441Z,21.08
2017-11-29T05:03:32.088Z,21.11
2017-11-29T05:04:03.719Z,21.11
2017-11-29T05:04:35.359Z,21.14
2017-11-29T05:05:06.988Z,21.13
2017-11-29T05:05:38.679Z,21.14
2017-11-29T05:06:10.312Z,21.14
2017-11-29T05:06:41.939Z,21.13
2017-11-29T05:07:13.562Z,21.11
2017-11-29T05:07:45.187Z,21.11
2017-11-29T05:08:17.133Z,21.10
2017-11-29T05:08:49.079Z,21.09
2017-11-29T05:09:21.027Z,21.10
2017-11-29T05:09:52.666Z,21.09
2017-11-29T05:10:24.549Z,21.11
2017-11-29T05:10:56.232Z,21.10
2017-11-29T05:11:27.874Z,21.12
2017-11-29T05:11:59.545Z,21.13
2017-11-29T05:12:31.185Z,21.14
2017-11-29T05:13:02.824Z,21.15
2017-11-29T05:13:34.466Z,21.14
2017-11-29T05:14:06.136Z,21.13
2017-11-29T05:14:37.773Z,21.16
2017-11-29T05:15:09.405Z,21.15
2017-11-29T05:15:41.308Z,21.16
2017-11-29T05:16:12.988Z,21.17
2017-11-29T05:16:44.625Z,21.18
2017-11-29T05:17:16.267Z,21.18
2017-11-29T05:17:47.911Z,21.17
2017-11-29T05:18:19.551Z,21.17
2017-11-29T05:18:51.194Z,21.13
2017-11-29T05:19:22.841Z,21.16
2017-11-29T05:19:54.477Z,21.16
2017-11-29T05:20:26.121Z,21.15
2017-11-29T05:20:57.803Z,21.17
2017-11-29T05:21:29.428Z,21.16
2017-11-29T05:22:01.051Z,21.09
2017-11-29T05:22:32.675Z,21.14
2017-11-29T05:23:04.330Z,21.14
2017-11-29T05:23:36.016Z,21.12
2017-11-29T05:24:07.640Z,21.12
2017-11-29T05:24:39.267Z,21.13
2017-11-29T05:25:11.205Z,21.12
2017-11-29T05:25:42.843Z,21.12
2017-11-29T05:26:14.477Z,21.12
2017-11-29T05:26:46.134Z,21.13
2017-11-29T05:27:19.189Z,21.13
2017-11-29T05:27:50.820Z,21.14
2017-11-29T05:28:22.456Z,21.14
2017-11-29T05:28:54.143Z,21.13
2017-11-29T05:29:25.780Z,21.13
2017-11-29T05:29:57.526Z,21.13
2017-11-29T05:30:29.180Z,21.14
2017-11-29T05:31:00.807Z,21.13
2017-11-29T05:31:32.444Z,21.15
2017-11-29T05:32:04.090Z,21.17
2017-11-29T05:32:35.731Z,21.17
2017-11-29T05:33:07.659Z,21.16
2017-11-29T05:33:39.320Z,21.18
2017-11-29T05:34:10.984Z,21.16
2017-11-29T05:34:42.617Z,21.17
2017-11-29T05:35:14.482Z,21.15
2017-11-29T05:35:46.157Z,21.14
2017-11-29T05:36:17.836Z,21.12
2017-11-29T05:36:49.721Z,21.12
2017-11-29T05:37:21.343Z,21.11
2017-11-29T05:37:52.972Z,21.10
2017-11-29T05:38:24.611Z,21.07
2017-11-29T05:38:56.353Z,21.08
2017-11-29T05:39:28.028Z,21.11
2017-11-29T05:40:00.251Z,21.15
2017-11-29T05:40:31.923Z,21.13
2017-11-29T05:41:03.552Z,21.12
2017-11-29T05:41:35.484Z,21.13
2017-11-29T05:42:07.156Z,21.14
2017-11-29T05:42:38.783Z,21.14
2017-11-29T05:43:10.717Z,21.12
2017-11-29T05:43:42.550Z,21.10
2017-11-29T05:44:14.234Z,21.11
2017-11-29T05:44:45.860Z,21.08
2017-11-29T05:45:17.592Z,21.07
2017-11-29T05:45:49.479Z,21.08
2017-11-29T05:46:21.110Z,21.06
2017-11-29T05:46:52.743Z,21.04
2017-11-29T05:47:24.367Z,21.03
2017-11-29T05:47:55.996Z,21.05
2017-11-29T05:48:27.750Z,21.04
2017-11-29T05:48:59.388Z,21.02
2017-11-29T05:49:31.063Z,21.04
2017-11-29T05:50:03.589Z,21.02
2017-11-29T05:50:35.238Z,21.03
2017-11-29T05:51:06.871Z,21.01
2017-11-29T05:51:38.521Z,21.00
2017-11-29T05:52:10.162Z,20.99
2017-11-29T05:52:42.116Z,21.00
2017-11-29T05:53:14.066Z,20.98
2017-11-29T05:53:45.712Z,20.98
2017-11-29T05:54:17.356Z,20.97
2017-11-29T05:54:49.020Z,20.95
2017-11-29T05:55:20.644Z,20.96
2017-11-29T05:55:52.580Z,20.96
2017-11-29T05:56:24.221Z,20.97
2017-11-29T05:56:55.864Z,20.98
2017-11-29T05:57:27.503Z,20.95
2017-11-29T05:57:59.144Z,20.91
2017-11-29T05:58:30.776Z,20.95
2017-11-29T05:59:02.436Z,20.96
2017-11-29T05:59:34.060Z,20.96
2017-11-29T06:00:05.712Z,20.95
2017-11-29T06:00:37.353Z,20.96
2017-11-29T06:01:08.999Z,20.93
2017-11-29T06:01:40.947Z,20.94
2017-11-29T06:02:12.586Z,20.95
2017-11-29T06:02:44.230Z,20.94
2017-11-29T06:03:15.871Z,20.94
2017-11-29T06:03:47.541Z,20.95
2017-11-29T06:04:19.166Z,20.95
2017-11-29T06:04:50.808Z,20.94
2017-11-29T06:05:22.661Z,20.95
2017-11-29T06:05:54.303Z,20.96
2017-11-29T06:06:25.960Z,20.95
2017-11-29T06:06:57.590Z,20.96
2017-11-29T06:07:29.235Z,20.95
2017-11-29T06:08:00.866Z,20.94
2017-11-29T06:08:32.600Z,20.94
2017-11-29T06:09:04.239Z,20.93
2017-11-29T06:09:35.911Z,20.93
2017-11-29T06:10:08.418Z,20.95
2017-11-29T06:10:40.343Z,20.95
2017-11-29T06:11:11.976Z,20.92
2017-11-29T06:11:43.600Z,20.94
2017-11-29T06:12:15.231Z,20.94
2017-11-29T06:12:46.971Z,20.95
2017-11-29T06:13:18.607Z,20.96
2017-11-29T06:13:50.244Z,20.95
2017-11-29T06:14:21.887Z,20.95
2017-11-29T06:14:53.555Z,20.95
2017-11-29T06:15:25.180Z,20.95
2017-11-29T06:15:56.839Z,20.94
2017-11-29T06:16:28.465Z,20.96
2017-11-29T06:17:00.327Z,20.96
2017-11-29T06:17:31.953Z,20.96
2017-11-29T06:18:03.592Z,20.98
2017-11-29T06:18:35.416Z,20.97
2017-11-29T06:19:07.044Z,20.98
2017-11-29T06:19:38.672Z,20.95
2017-11-29T06:20:10.356Z,20.95
2017-11-29T06:20:42.207Z,20.95
2017-11-29T06:21:13.844Z,20.94
2017-11-29T06:21:45.476Z,20.94
2017-11-29T06:22:17.099Z,20.95
2017-11-29T06:22:49.129Z,20.95
2017-11-29T06:23:20.763Z,20.96
2017-11-29T06:23:52.388Z,20.96
2017-11-29T06:24:24.016Z,20.97
2017-11-29T06:24:55.878Z,20.96
2017-11-29T06:25:27.503Z,20.96
2017-11-29T06:25:59.132Z,20.96
2017-11-29T06:26:30.882Z,20.97
2017-11-29T06:27:02.511Z,21.01
2017-11-29T06:27:34.166Z,21.00
2017-11-29T06:28:05.808Z,21.03
2017-11-29T06:28:37.643Z,21.04
2017-11-29T06:29:09.399Z,21.05
2017-11-29T06:29:41.038Z,21.06
2017-11-29T06:30:12.683Z,21.05
2017-11-29T06:30:44.322Z,21.07
2017-11-29T06:31:15.970Z,21.10
2017-11-29T06:31:47.643Z,21.12
2017-11-29T06:32:19.274Z,21.11
2017-11-29T06:32:50.912Z,21.10
2017-11-29T06:33:22.540Z,21.12
2017-11-29T06:33:54.144Z,21.11
2017-11-29T06:34:25.819Z,21.10
2017-11-29T06:34:57.459Z,21.11
2017-11-29T06:35:29.101Z,21.09
2017-11-29T06:36:00.742Z,21.08
2017-11-29T06:36:32.383Z,21.11
2017-11-29T06:37:04.062Z,21.11
2017-11-29T06:37:35.699Z,21.12
2017-11-29T06:38:07.324Z,21.16
2017-11-29T06:38:39.191Z,21.15
2017-11-29T06:39:10.825Z,21.15
2017-11-29T06:39:42.456Z,21.13
2017-11-29T06:40:14.087Z,21.13
2017-11-29T06:40:45.829Z,21.13
2017-11-29T06:41:17.459Z,21.16
2017-11-29T06:41:49.109Z,21.15
2017-11-29T06:42:20.775Z,21.17
2017-11-29T06:42:52.404Z,21.18
2017-11-29T06:43:24.277Z,21.17
2017-11-29T06:43:55.903Z,21.17
2017-11-29T06:44:27.531Z,21.17
2017-11-29T06:44:59.270Z,21.16
2017-11-29T06:45:31.220Z,21.19
2017-11-29T06:46:02.908Z,21.19
2017-11-29T06:46:34.532Z,21.23
2017-11-29T06:47:06.164Z,21.24
2017-11-29T06:47:37.790Z,21.22
2017-11-29T06:48:09.430Z,21.25